sensor_id;sensor_type;location;lat;lon;timestamp;temperature;humidity
8988;DHT22;4529;51.360;12.474;2022-09-09T00:04:00;15.70;99.90
8988;DHT22;4529;51.360;12.474;2022-09-09T00:14:27;15.40;99.90
8988;DHT22;4529;51.360;12.474;2022-09-09T00:19:38;15.20;99.90
8988;DHT22;4529;51.360;12.474;2022-09-09T00:24:52;15.10;99.90
8988;DHT22;4529;51.360;12.474;2022-09-09T00:29:57;15.10;99.90
8988;DHT22;4529;51.360;12.474;2022-09-09T00:35:04;14.90;99.90
8988;DHT22;4529;51.360;12.474;2022-09-09T00:40:32;14.90;99.90
8988;DHT22;4529;51.360;12.474;2022-09-09T00:51:36;14.90;99.90
8988;DHT22;4529;51.360;12.474;2022-09-09T00:56:18;15.00;99.90
8988;DHT22;4529;51.360;12.474;2022-09-09T01:01:17;15.10;99.90
8988;DHT22;4529;51.360;12.474;2022-09-09T01:06:36;15.20;99.90
8988;DHT22;4529;51.360;12.474;2022-09-09T01:17:27;15.50;99.90
8988;DHT22;4529;51.360;12.474;2022-09-09T01:27:46;15.80;99.90
8988;DHT22;4529;51.360;12.474;2022-09-09T01:32:50;15.80;99.90
8988;DHT22;4529;51.360;12.474;2022-09-09T01:37:52;15.80;99.90
8988;DHT22;4529;51.360;12.474;2022-09-09T01:42:56;15.70;99.90
8988;DHT22;4529;51.360;12.474;2022-09-09T01:47:59;15.70;99.90
8988;DHT22;4529;51.360;12.474;2022-09-09T01:53:03;15.80;99.90
8988;DHT22;4529;51.360;12.474;2022-09-09T01:58:24;15.80;99.90
8988;DHT22;4529;51.360;12.474;2022-09-09T02:03:28;15.80;99.90
8988;DHT22;4529;51.360;12.474;2022-09-09T02:08:50;15.80;99.90
8988;DHT22;4529;51.360;12.474;2022-09-09T02:14:12;15.80;99.90
8988;DHT22;4529;51.360;12.474;2022-09-09T02:24:18;15.80;99.90
8988;DHT22;4529;51.360;12.474;2022-09-09T02:29:29;15.70;99.90
8988;DHT22;4529;51.360;12.474;2022-09-09T02:39:34;15.70;99.90
8988;DHT22;4529;51.360;12.474;2022-09-09T02:44:37;15.70;99.90
8988;DHT22;4529;51.360;12.474;2022-09-09T02:49:50;15.60;99.90
8988;DHT22;4529;51.360;12.474;2022-09-09T02:54:50;15.70;99.90
8988;DHT22;4529;51.360;12.474;2022-09-09T02:59:53;15.60;99.90
8988;DHT22;4529;51.360;12.474;2022-09-09T03:04:56;15.60;99.90
8988;DHT22;4529;51.360;12.474;2022-09-09T03:10:00;15.70;99.90
8988;DHT22;4529;51.360;12.474;2022-09-09T03:15:04;15.70;99.90
8988;DHT22;4529;51.360;12.474;2022-09-09T03:20:07;15.60;99.90
8988;DHT22;4529;51.360;12.474;2022-09-09T03:25:11;15.60;99.90
8988;DHT22;4529;51.360;12.474;2022-09-09T03:30:14;15.50;99.90
8988;DHT22;4529;51.360;12.474;2022-09-09T03:35:18;15.50;99.90
8988;DHT22;4529;51.360;12.474;2022-09-09T03:40:21;15.60;99.90
8988;DHT22;4529;51.360;12.474;2022-09-09T03:45:24;15.50;99.90
8988;DHT22;4529;51.360;12.474;2022-09-09T03:50:28;15.50;99.90
8988;DHT22;4529;51.360;12.474;2022-09-09T03:55:31;15.60;99.90
8988;DHT22;4529;51.360;12.474;2022-09-09T04:00:35;15.60;99.90
8988;DHT22;4529;51.360;12.474;2022-09-09T04:05:40;15.60;99.90
8988;DHT22;4529;51.360;12.474;2022-09-09T04:10:47;15.50;99.90
8988;DHT22;4529;51.360;12.474;2022-09-09T04:15:56;15.50;99.90
8988;DHT22;4529;51.360;12.474;2022-09-09T04:20:59;15.40;99.90
8988;DHT22;4529;51.360;12.474;2022-09-09T04:26:03;15.40;99.90
8988;DHT22;4529;51.360;12.474;2022-09-09T04:31:08;15.30;99.90
8988;DHT22;4529;51.360;12.474;2022-09-09T04:36:11;15.30;99.90
8988;DHT22;4529;51.360;12.474;2022-09-09T04:41:15;15.20;99.90
8988;DHT22;4529;51.360;12.474;2022-09-09T04:46:20;15.10;99.90
8988;DHT22;4529;51.360;12.474;2022-09-09T04:51:24;15.10;99.90
8988;DHT22;4529;51.360;12.474;2022-09-09T04:56:28;15.10;99.90
8988;DHT22;4529;51.360;12.474;2022-09-09T05:01:32;15.10;99.90
8988;DHT22;4529;51.360;12.474;2022-09-09T05:06:36;15.10;99.90
8988;DHT22;4529;51.360;12.474;2022-09-09T05:11:40;15.30;99.90
8988;DHT22;4529;51.360;12.474;2022-09-09T05:16:47;15.40;99.90
8988;DHT22;4529;51.360;12.474;2022-09-09T05:21:50;15.50;99.90
8988;DHT22;4529;51.360;12.474;2022-09-09T05:26:55;15.80;99.90
8988;DHT22;4529;51.360;12.474;2022-09-09T05:31:59;15.80;99.90
8988;DHT22;4529;51.360;12.474;2022-09-09T05:37:02;15.90;99.90
8988;DHT22;4529;51.360;12.474;2022-09-09T05:42:06;16.10;99.90
8988;DHT22;4529;51.360;12.474;2022-09-09T05:47:09;16.20;99.90
8988;DHT22;4529;51.360;12.474;2022-09-09T05:52:13;16.20;99.90
8988;DHT22;4529;51.360;12.474;2022-09-09T05:57:17;16.20;99.90
8988;DHT22;4529;51.360;12.474;2022-09-09T06:02:21;16.20;99.90
8988;DHT22;4529;51.360;12.474;2022-09-09T06:07:26;16.30;99.90
8988;DHT22;4529;51.360;12.474;2022-09-09T06:12:29;16.20;99.90
8988;DHT22;4529;51.360;12.474;2022-09-09T06:17:32;16.30;99.90
8988;DHT22;4529;51.360;12.474;2022-09-09T06:22:38;16.50;99.90
8988;DHT22;4529;51.360;12.474;2022-09-09T06:27:40;16.40;99.90
8988;DHT22;4529;51.360;12.474;2022-09-09T06:32:43;16.50;99.90
8988;DHT22;4529;51.360;12.474;2022-09-09T06:37:48;16.60;99.90
8988;DHT22;4529;51.360;12.474;2022-09-09T06:42:52;16.80;99.90
8988;DHT22;4529;51.360;12.474;2022-09-09T06:47:56;16.80;99.90
8988;DHT22;4529;51.360;12.474;2022-09-09T06:53:00;16.90;99.90
8988;DHT22;4529;51.360;12.474;2022-09-09T06:58:08;16.90;99.90
8988;DHT22;4529;51.360;12.474;2022-09-09T07:03:09;16.90;99.90
8988;DHT22;4529;51.360;12.474;2022-09-09T07:08:12;17.20;99.90
8988;DHT22;4529;51.360;12.474;2022-09-09T07:13:16;17.40;99.90
8988;DHT22;4529;51.360;12.474;2022-09-09T07:18:20;17.60;99.90
8988;DHT22;4529;51.360;12.474;2022-09-09T07:23:24;17.50;99.90
8988;DHT22;4529;51.360;12.474;2022-09-09T07:28:27;17.60;99.90
8988;DHT22;4529;51.360;12.474;2022-09-09T07:33:32;17.70;99.90
8988;DHT22;4529;51.360;12.474;2022-09-09T07:38:41;18.00;99.90
8988;DHT22;4529;51.360;12.474;2022-09-09T07:43:44;18.30;99.90
8988;DHT22;4529;51.360;12.474;2022-09-09T07:48:51;18.60;99.90
8988;DHT22;4529;51.360;12.474;2022-09-09T07:53:54;18.90;99.90
8988;DHT22;4529;51.360;12.474;2022-09-09T07:58:57;19.10;99.90
8988;DHT22;4529;51.360;12.474;2022-09-09T08:04:01;19.20;99.90
8988;DHT22;4529;51.360;12.474;2022-09-09T08:09:04;19.30;99.90
8988;DHT22;4529;51.360;12.474;2022-09-09T08:14:08;19.30;99.90
8988;DHT22;4529;51.360;12.474;2022-09-09T08:19:11;19.90;99.90
8988;DHT22;4529;51.360;12.474;2022-09-09T08:29:18;20.80;99.90
8988;DHT22;4529;51.360;12.474;2022-09-09T08:34:22;20.50;99.90
8988;DHT22;4529;51.360;12.474;2022-09-09T08:39:26;20.70;99.90
8988;DHT22;4529;51.360;12.474;2022-09-09T08:50:36;20.80;99.90
8988;DHT22;4529;51.360;12.474;2022-09-09T08:56:08;21.20;99.90
8988;DHT22;4529;51.360;12.474;2022-09-09T09:01:16;21.20;99.90
8988;DHT22;4529;51.360;12.474;2022-09-09T09:06:26;21.40;99.90
8988;DHT22;4529;51.360;12.474;2022-09-09T09:11:39;21.70;99.90
8988;DHT22;4529;51.360;12.474;2022-09-09T09:22:18;21.90;99.90
8988;DHT22;4529;51.360;12.474;2022-09-09T09:27:36;22.00;99.90
8988;DHT22;4529;51.360;12.474;2022-09-09T09:32:39;22.10;99.90
8988;DHT22;4529;51.360;12.474;2022-09-09T09:37:42;22.10;99.90
8988;DHT22;4529;51.360;12.474;2022-09-09T09:42:53;22.40;99.90
8988;DHT22;4529;51.360;12.474;2022-09-09T09:48:02;22.60;99.90
8988;DHT22;4529;51.360;12.474;2022-09-09T09:53:04;22.80;99.90
8988;DHT22;4529;51.360;12.474;2022-09-09T09:58:13;22.10;99.90
8988;DHT22;4529;51.360;12.474;2022-09-09T10:03:28;22.10;99.90
8988;DHT22;4529;51.360;12.474;2022-09-09T10:08:33;22.30;99.90
8988;DHT22;4529;51.360;12.474;2022-09-09T10:14:19;22.40;99.90
8988;DHT22;4529;51.360;12.474;2022-09-09T10:19:30;22.40;99.90
8988;DHT22;4529;51.360;12.474;2022-09-09T10:30:41;23.30;99.90
8988;DHT22;4529;51.360;12.474;2022-09-09T10:36:07;23.50;99.90
8988;DHT22;4529;51.360;12.474;2022-09-09T10:52:24;23.10;99.90
8988;DHT22;4529;51.360;12.474;2022-09-09T10:57:41;22.90;99.90
8988;DHT22;4529;51.360;12.474;2022-09-09T11:02:43;23.20;99.90
8988;DHT22;4529;51.360;12.474;2022-09-09T11:08:05;23.40;99.90
8988;DHT22;4529;51.360;12.474;2022-09-09T11:13:18;23.20;99.90
8988;DHT22;4529;51.360;12.474;2022-09-09T11:18:19;23.10;99.90
8988;DHT22;4529;51.360;12.474;2022-09-09T11:23:40;23.10;99.90
8988;DHT22;4529;51.360;12.474;2022-09-09T11:28:55;23.20;99.90
8988;DHT22;4529;51.360;12.474;2022-09-09T11:34:03;23.50;99.90
8988;DHT22;4529;51.360;12.474;2022-09-09T11:44:28;23.10;99.90
8988;DHT22;4529;51.360;12.474;2022-09-09T11:54:48;23.00;99.90
8988;DHT22;4529;51.360;12.474;2022-09-09T11:59:51;22.90;99.90
8988;DHT22;4529;51.360;12.474;2022-09-09T12:05:12;23.50;99.90
8988;DHT22;4529;51.360;12.474;2022-09-09T12:10:34;23.50;99.90
8988;DHT22;4529;51.360;12.474;2022-09-09T12:15:46;23.50;99.90
8988;DHT22;4529;51.360;12.474;2022-09-09T12:20:49;23.80;99.90
8988;DHT22;4529;51.360;12.474;2022-09-09T12:26:12;23.60;99.90
8988;DHT22;4529;51.360;12.474;2022-09-09T12:36:38;23.40;99.90
8988;DHT22;4529;51.360;12.474;2022-09-09T12:41:50;23.40;99.90
8988;DHT22;4529;51.360;12.474;2022-09-09T12:46:45;23.30;99.90
8988;DHT22;4529;51.360;12.474;2022-09-09T12:51:49;23.50;99.90
8988;DHT22;4529;51.360;12.474;2022-09-09T12:56:53;23.70;99.90
8988;DHT22;4529;51.360;12.474;2022-09-09T13:01:58;23.40;99.90
8988;DHT22;4529;51.360;12.474;2022-09-09T13:07:07;23.40;99.90
8988;DHT22;4529;51.360;12.474;2022-09-09T13:12:14;23.20;99.90
8988;DHT22;4529;51.360;12.474;2022-09-09T13:17:24;23.70;99.90
8988;DHT22;4529;51.360;12.474;2022-09-09T13:22:36;23.70;99.90
8988;DHT22;4529;51.360;12.474;2022-09-09T13:28:03;23.40;99.90
8988;DHT22;4529;51.360;12.474;2022-09-09T13:38:15;23.20;99.90
8988;DHT22;4529;51.360;12.474;2022-09-09T13:43:20;23.10;99.90
8988;DHT22;4529;51.360;12.474;2022-09-09T13:48:22;22.90;99.90
8988;DHT22;4529;51.360;12.474;2022-09-09T13:53:26;22.80;99.90
8988;DHT22;4529;51.360;12.474;2022-09-09T13:58:29;22.80;99.90
8988;DHT22;4529;51.360;12.474;2022-09-09T14:03:32;22.60;99.90
8988;DHT22;4529;51.360;12.474;2022-09-09T14:08:36;22.50;99.90
8988;DHT22;4529;51.360;12.474;2022-09-09T14:13:40;22.60;99.90
8988;DHT22;4529;51.360;12.474;2022-09-09T14:18:43;21.90;99.90
8988;DHT22;4529;51.360;12.474;2022-09-09T14:23:48;19.30;99.90
8988;DHT22;4529;51.360;12.474;2022-09-09T14:28:52;18.90;99.90
8988;DHT22;4529;51.360;12.474;2022-09-09T14:33:56;18.60;99.90
8988;DHT22;4529;51.360;12.474;2022-09-09T14:39:00;18.50;99.90
8988;DHT22;4529;51.360;12.474;2022-09-09T14:44:05;18.50;99.90
8988;DHT22;4529;51.360;12.474;2022-09-09T14:49:08;18.50;99.90
8988;DHT22;4529;51.360;12.474;2022-09-09T14:54:12;18.90;99.90
8988;DHT22;4529;51.360;12.474;2022-09-09T14:59:17;19.00;99.90
8988;DHT22;4529;51.360;12.474;2022-09-09T15:04:21;19.20;99.90
8988;DHT22;4529;51.360;12.474;2022-09-09T15:09:25;19.40;99.90
8988;DHT22;4529;51.360;12.474;2022-09-09T15:14:29;19.90;99.90
8988;DHT22;4529;51.360;12.474;2022-09-09T15:19:33;20.00;99.90
8988;DHT22;4529;51.360;12.474;2022-09-09T15:24:42;20.00;99.90
8988;DHT22;4529;51.360;12.474;2022-09-09T15:29:46;20.00;99.90
8988;DHT22;4529;51.360;12.474;2022-09-09T15:34:50;20.00;99.90
8988;DHT22;4529;51.360;12.474;2022-09-09T15:39:54;20.30;99.90
8988;DHT22;4529;51.360;12.474;2022-09-09T15:44:58;20.30;99.90
8988;DHT22;4529;51.360;12.474;2022-09-09T15:50:03;20.30;99.90
8988;DHT22;4529;51.360;12.474;2022-09-09T15:55:07;20.40;99.90
8988;DHT22;4529;51.360;12.474;2022-09-09T16:00:11;20.40;99.90
8988;DHT22;4529;51.360;12.474;2022-09-09T16:05:14;20.50;99.90
8988;DHT22;4529;51.360;12.474;2022-09-09T16:10:18;20.60;99.90
8988;DHT22;4529;51.360;12.474;2022-09-09T16:15:22;20.60;99.90
8988;DHT22;4529;51.360;12.474;2022-09-09T16:20:25;20.30;99.90
8988;DHT22;4529;51.360;12.474;2022-09-09T16:25:29;20.20;99.90
8988;DHT22;4529;51.360;12.474;2022-09-09T16:30:32;20.20;99.90
8988;DHT22;4529;51.360;12.474;2022-09-09T16:35:38;20.20;99.90
8988;DHT22;4529;51.360;12.474;2022-09-09T16:40:41;20.10;99.90
8988;DHT22;4529;51.360;12.474;2022-09-09T16:45:45;20.10;99.90
8988;DHT22;4529;51.360;12.474;2022-09-09T16:50:49;19.90;99.90
8988;DHT22;4529;51.360;12.474;2022-09-09T16:55:52;20.00;99.90
8988;DHT22;4529;51.360;12.474;2022-09-09T17:00:57;19.90;99.90
8988;DHT22;4529;51.360;12.474;2022-09-09T17:05:58;19.90;99.90
8988;DHT22;4529;51.360;12.474;2022-09-09T17:11:03;19.70;99.90
8988;DHT22;4529;51.360;12.474;2022-09-09T17:16:07;19.50;99.90
8988;DHT22;4529;51.360;12.474;2022-09-09T17:21:14;19.50;99.90
8988;DHT22;4529;51.360;12.474;2022-09-09T17:26:19;19.50;99.90
8988;DHT22;4529;51.360;12.474;2022-09-09T17:31:22;19.30;99.90
8988;DHT22;4529;51.360;12.474;2022-09-09T17:36:32;19.20;99.90
8988;DHT22;4529;51.360;12.474;2022-09-09T17:41:34;19.20;99.90
8988;DHT22;4529;51.360;12.474;2022-09-09T17:46:35;19.20;99.90
8988;DHT22;4529;51.360;12.474;2022-09-09T17:51:39;18.90;99.90
8988;DHT22;4529;51.360;12.474;2022-09-09T17:56:43;18.60;99.90
8988;DHT22;4529;51.360;12.474;2022-09-09T18:01:47;18.50;99.90
8988;DHT22;4529;51.360;12.474;2022-09-09T18:06:51;18.40;99.90
8988;DHT22;4529;51.360;12.474;2022-09-09T18:11:56;18.50;99.90
8988;DHT22;4529;51.360;12.474;2022-09-09T18:17:00;18.30;99.90
8988;DHT22;4529;51.360;12.474;2022-09-09T18:22:06;18.30;99.90
8988;DHT22;4529;51.360;12.474;2022-09-09T18:27:09;18.20;99.90
8988;DHT22;4529;51.360;12.474;2022-09-09T18:32:12;18.30;99.90
8988;DHT22;4529;51.360;12.474;2022-09-09T18:37:16;18.40;99.90
8988;DHT22;4529;51.360;12.474;2022-09-09T18:42:19;18.30;99.90
8988;DHT22;4529;51.360;12.474;2022-09-09T18:47:24;18.20;99.90
8988;DHT22;4529;51.360;12.474;2022-09-09T18:52:27;18.10;99.90
8988;DHT22;4529;51.360;12.474;2022-09-09T18:57:32;18.00;99.90
8988;DHT22;4529;51.360;12.474;2022-09-09T19:02:36;18.00;99.90
8988;DHT22;4529;51.360;12.474;2022-09-09T19:07:40;18.00;99.90
8988;DHT22;4529;51.360;12.474;2022-09-09T19:12:44;18.00;99.90
8988;DHT22;4529;51.360;12.474;2022-09-09T19:17:48;18.00;99.90
8988;DHT22;4529;51.360;12.474;2022-09-09T19:22:52;17.90;99.90
8988;DHT22;4529;51.360;12.474;2022-09-09T19:28:38;17.80;99.90
8988;DHT22;4529;51.360;12.474;2022-09-09T19:33:43;17.80;99.90
8988;DHT22;4529;51.360;12.474;2022-09-09T19:38:46;17.90;99.90
8988;DHT22;4529;51.360;12.474;2022-09-09T19:43:51;17.70;99.90
8988;DHT22;4529;51.360;12.474;2022-09-09T19:48:54;17.80;99.90
8988;DHT22;4529;51.360;12.474;2022-09-09T19:54:04;18.00;99.90
8988;DHT22;4529;51.360;12.474;2022-09-09T19:59:03;18.00;99.90
8988;DHT22;4529;51.360;12.474;2022-09-09T20:04:07;18.00;99.90
8988;DHT22;4529;51.360;12.474;2022-09-09T20:09:14;18.00;99.90
8988;DHT22;4529;51.360;12.474;2022-09-09T20:14:16;18.00;99.90
8988;DHT22;4529;51.360;12.474;2022-09-09T20:19:20;18.00;99.90
8988;DHT22;4529;51.360;12.474;2022-09-09T20:24:24;18.00;99.90
8988;DHT22;4529;51.360;12.474;2022-09-09T20:29:28;18.00;99.90
8988;DHT22;4529;51.360;12.474;2022-09-09T20:34:30;18.00;99.90
8988;DHT22;4529;51.360;12.474;2022-09-09T20:39:34;17.90;99.90
8988;DHT22;4529;51.360;12.474;2022-09-09T20:44:37;17.80;99.90
8988;DHT22;4529;51.360;12.474;2022-09-09T20:49:41;17.80;99.90
8988;DHT22;4529;51.360;12.474;2022-09-09T20:54:45;17.70;99.90
8988;DHT22;4529;51.360;12.474;2022-09-09T20:59:48;17.70;99.90
8988;DHT22;4529;51.360;12.474;2022-09-09T21:04:52;17.60;99.90
8988;DHT22;4529;51.360;12.474;2022-09-09T21:09:56;17.40;99.90
8988;DHT22;4529;51.360;12.474;2022-09-09T21:14:59;17.40;99.90
8988;DHT22;4529;51.360;12.474;2022-09-09T21:20:03;17.40;99.90
8988;DHT22;4529;51.360;12.474;2022-09-09T21:25:07;17.40;99.90
8988;DHT22;4529;51.360;12.474;2022-09-09T21:30:11;17.30;99.90
8988;DHT22;4529;51.360;12.474;2022-09-09T21:35:14;17.40;99.90
8988;DHT22;4529;51.360;12.474;2022-09-09T21:40:18;17.10;99.90
8988;DHT22;4529;51.360;12.474;2022-09-09T21:45:22;17.10;99.90
8988;DHT22;4529;51.360;12.474;2022-09-09T21:50:26;16.90;99.90
8988;DHT22;4529;51.360;12.474;2022-09-09T21:55:33;16.80;99.90
8988;DHT22;4529;51.360;12.474;2022-09-09T22:00:38;16.90;99.90
8988;DHT22;4529;51.360;12.474;2022-09-09T22:05:40;16.90;99.90
8988;DHT22;4529;51.360;12.474;2022-09-09T22:10:44;16.90;99.90
8988;DHT22;4529;51.360;12.474;2022-09-09T22:15:46;16.90;99.90
8988;DHT22;4529;51.360;12.474;2022-09-09T22:20:49;16.90;99.90
8988;DHT22;4529;51.360;12.474;2022-09-09T22:25:53;16.90;99.90
8988;DHT22;4529;51.360;12.474;2022-09-09T22:30:56;16.80;99.90
8988;DHT22;4529;51.360;12.474;2022-09-09T22:36:00;16.80;99.90
8988;DHT22;4529;51.360;12.474;2022-09-09T22:41:04;16.70;99.90
8988;DHT22;4529;51.360;12.474;2022-09-09T22:46:07;16.70;99.90
8988;DHT22;4529;51.360;12.474;2022-09-09T22:51:12;16.70;99.90
8988;DHT22;4529;51.360;12.474;2022-09-09T22:56:16;16.70;99.90
8988;DHT22;4529;51.360;12.474;2022-09-09T23:01:20;16.70;99.90
8988;DHT22;4529;51.360;12.474;2022-09-09T23:06:25;16.60;99.90
8988;DHT22;4529;51.360;12.474;2022-09-09T23:11:28;16.40;99.90
8988;DHT22;4529;51.360;12.474;2022-09-09T23:16:39;16.40;99.90
8988;DHT22;4529;51.360;12.474;2022-09-09T23:21:42;16.40;99.90
8988;DHT22;4529;51.360;12.474;2022-09-09T23:26:45;16.50;99.90
8988;DHT22;4529;51.360;12.474;2022-09-09T23:31:49;16.40;99.90
8988;DHT22;4529;51.360;12.474;2022-09-09T23:36:53;16.40;99.90
8988;DHT22;4529;51.360;12.474;2022-09-09T23:41:57;16.40;99.90
8988;DHT22;4529;51.360;12.474;2022-09-09T23:47:00;16.30;99.90
8988;DHT22;4529;51.360;12.474;2022-09-09T23:52:04;16.20;99.90
8988;DHT22;4529;51.360;12.474;2022-09-09T23:57:08;16.20;99.90
